createdAt,value
2019-03-06T00:03:47.458Z,2.93
2019-03-06T00:08:52.459Z,3.57
2019-03-06T00:13:57.470Z,3.50
2019-03-06T00:19:02.469Z,4.23
2019-03-06T00:24:07.500Z,4.47
2019-03-06T00:29:12.520Z,5.03
2019-03-06T00:34:17.560Z,5.10
2019-03-06T00:39:23.260Z,5.23
2019-03-06T00:44:28.302Z,4.73
2019-03-06T00:49:33.308Z,4.80
2019-03-06T00:54:38.305Z,5.83
2019-03-06T00:59:43.311Z,5.90
2019-03-06T01:04:48.361Z,6.03
2019-03-06T01:09:53.371Z,6.83
2019-03-06T01:14:58.384Z,7.93
2019-03-06T01:20:03.698Z,8.00
2019-03-06T01:25:09.334Z,6.77
2019-03-06T01:30:16.423Z,8.73
2019-03-06T01:35:52.352Z,8.60
2019-03-06T01:41:19.355Z,8.83
2019-03-06T01:46:24.650Z,9.07
2019-03-06T01:51:29.658Z,10.10
2019-03-06T01:56:34.676Z,9.23
2019-03-06T02:01:39.700Z,9.50
2019-03-06T02:06:45.309Z,9.93
2019-03-06T02:11:50.295Z,9.20
2019-03-06T02:16:55.344Z,9.47
2019-03-06T02:22:00.436Z,9.63
2019-03-06T02:27:06.000Z,10.70
2019-03-06T02:32:11.055Z,10.03
2019-03-06T02:37:16.054Z,9.10
2019-03-06T02:42:21.064Z,8.77
2019-03-06T02:47:26.094Z,10.80
2019-03-06T02:52:31.270Z,9.90
2019-03-06T02:57:36.883Z,10.37
2019-03-06T03:02:51.371Z,10.53
2019-03-06T03:07:56.566Z,11.00
2019-03-06T03:13:01.568Z,11.10
2019-03-06T03:18:06.674Z,11.13
2019-03-06T03:23:11.720Z,11.30
2019-03-06T03:28:19.668Z,10.77
2019-03-06T03:33:23.360Z,11.60
2019-03-06T03:38:28.378Z,12.07
2019-03-06T03:43:33.418Z,12.67
2019-03-06T03:48:38.421Z,11.87
2019-03-06T03:53:43.440Z,12.87
2019-03-06T03:58:48.433Z,13.57
2019-03-06T04:03:53.438Z,13.77
2019-03-06T04:08:58.476Z,15.73
2019-03-06T04:14:03.469Z,18.47
2019-03-06T04:19:08.817Z,20.73
2019-03-06T04:24:13.873Z,20.33
2019-03-06T04:29:19.188Z,24.17
2019-03-06T04:34:24.194Z,23.10
2019-03-06T04:39:30.295Z,23.30
2019-03-06T04:44:35.275Z,26.10
2019-03-06T04:49:40.613Z,25.17
2019-03-06T04:54:47.078Z,24.80
2019-03-06T04:59:52.523Z,24.80
2019-03-06T05:04:57.523Z,25.00
2019-03-06T05:10:02.630Z,25.23
2019-03-06T05:15:09.044Z,25.47
2019-03-06T05:20:14.075Z,24.40
2019-03-06T05:25:19.125Z,25.90
2019-03-06T05:30:26.590Z,25.73
2019-03-06T05:35:37.147Z,26.60
2019-03-06T05:40:42.155Z,26.63
2019-03-06T05:45:47.167Z,26.43
2019-03-06T05:50:52.196Z,25.63
2019-03-06T05:55:57.231Z,24.80
2019-03-06T06:01:02.283Z,25.13
2019-03-06T06:06:07.287Z,25.17
2019-03-06T06:11:12.300Z,22.50
2019-03-06T06:16:17.317Z,25.07
2019-03-06T06:21:39.872Z,23.37
2019-03-06T06:26:46.527Z,23.27
2019-03-06T06:31:51.497Z,21.93
2019-03-06T06:36:56.600Z,21.93
2019-03-06T06:42:01.661Z,22.37
2019-03-06T06:47:06.663Z,23.03
2019-03-06T06:53:07.979Z,20.13
2019-03-06T06:58:32.305Z,19.00
2019-03-06T07:04:35.174Z,18.90
2019-03-06T07:09:57.932Z,20.53
2019-03-06T07:15:27.943Z,18.07
2019-03-06T07:20:50.261Z,20.00
2019-03-06T07:26:14.248Z,17.90
2019-03-06T07:31:30.547Z,18.37
2019-03-06T07:37:03.540Z,15.70
2019-03-06T07:42:30.475Z,16.47
2019-03-06T07:47:53.425Z,16.80
2019-03-06T07:53:48.758Z,15.03
2019-03-06T07:58:55.940Z,16.37
2019-03-06T08:04:09.561Z,16.00
2019-03-06T08:09:18.060Z,16.00
2019-03-06T08:14:56.967Z,15.70
2019-03-06T08:20:11.273Z,13.90
2019-03-06T08:25:28.098Z,14.23
2019-03-06T08:30:37.322Z,14.27
2019-03-06T08:35:42.404Z,12.67
2019-03-06T08:40:47.399Z,13.13
2019-03-06T08:46:11.920Z,13.47
2019-03-06T08:51:45.206Z,12.67
2019-03-06T08:57:09.179Z,11.80
2019-03-06T09:02:40.703Z,11.97
2019-03-06T09:07:59.931Z,11.23
2019-03-06T09:13:36.164Z,10.83
2019-03-06T09:18:59.074Z,12.33
2019-03-06T09:24:23.230Z,18.20
2019-03-06T09:29:56.307Z,11.67
2019-03-06T09:35:16.118Z,10.53
2019-03-06T09:40:29.003Z,9.43
2019-03-06T09:45:57.980Z,10.30
2019-03-06T09:51:22.862Z,9.43
2019-03-06T09:56:45.679Z,9.40
2019-03-06T10:02:17.585Z,9.03
2019-03-06T10:07:33.501Z,8.40
2019-03-06T10:12:57.403Z,8.27
2019-03-06T10:18:10.159Z,8.57
2019-03-06T10:23:15.200Z,8.90
2019-03-06T10:28:27.521Z,7.80
2019-03-06T10:33:26.868Z,7.73
2019-03-06T10:38:32.615Z,7.00
2019-03-06T10:43:38.235Z,7.40
2019-03-06T10:48:43.508Z,6.93
2019-03-06T10:53:48.819Z,6.77
2019-03-06T10:58:56.944Z,5.90
2019-03-06T11:04:23.662Z,6.30
2019-03-06T11:09:29.514Z,6.03
2019-03-06T11:14:34.603Z,5.57
2019-03-06T11:19:39.913Z,5.30
2019-03-06T11:24:44.943Z,5.17
2019-03-06T11:29:49.944Z,4.77
2019-03-06T11:34:54.948Z,4.60
2019-03-06T11:39:59.967Z,4.83
2019-03-06T11:45:06.114Z,4.30
2019-03-06T11:50:11.800Z,3.97
2019-03-06T11:55:17.584Z,3.77
2019-03-06T12:00:38.202Z,4.27
2019-03-06T12:05:43.519Z,3.47
2019-03-06T12:10:49.123Z,3.67
2019-03-06T12:15:54.136Z,3.13
2019-03-06T12:20:59.784Z,3.07
2019-03-06T12:26:05.248Z,4.53
2019-03-06T12:31:11.549Z,3.33
2019-03-06T12:36:16.583Z,2.93
2019-03-06T12:41:21.576Z,3.00
2019-03-06T12:46:27.027Z,2.77
2019-03-06T12:51:32.737Z,2.47
2019-03-06T12:56:38.063Z,3.30
2019-03-06T13:01:43.221Z,2.70
2019-03-06T13:06:48.184Z,2.80
2019-03-06T13:11:55.036Z,2.87
2019-03-06T13:17:00.443Z,2.50
2019-03-06T13:22:11.085Z,2.93
2019-03-06T13:27:12.709Z,2.87
2019-03-06T13:32:18.020Z,2.70
2019-03-06T13:37:24.124Z,2.83
2019-03-06T13:42:30.624Z,3.50
2019-03-06T13:47:35.617Z,2.90
2019-03-06T13:52:40.692Z,2.97
2019-03-06T13:57:49.565Z,2.70
2019-03-06T14:02:54.310Z,2.10
2019-03-06T14:07:59.329Z,2.20
2019-03-06T14:13:05.421Z,2.13
2019-03-06T14:18:12.733Z,2.00
2019-03-06T14:23:17.903Z,2.30
2019-03-06T14:28:23.028Z,2.07
2019-03-06T14:33:28.081Z,2.03
2019-03-06T14:38:33.372Z,2.37
2019-03-06T14:43:38.589Z,2.00
2019-03-06T14:48:43.848Z,1.90
2019-03-06T14:53:50.634Z,1.90
2019-03-06T14:58:55.702Z,2.50
2019-03-06T15:04:00.721Z,2.43
2019-03-06T15:09:27.624Z,2.23
2019-03-06T15:14:36.088Z,2.60
2019-03-06T15:19:40.646Z,3.43
2019-03-06T15:24:47.637Z,2.80
2019-03-06T15:29:52.752Z,2.67
2019-03-06T15:34:57.838Z,3.07
2019-03-06T15:40:05.481Z,3.80
2019-03-06T15:45:11.822Z,4.10
2019-03-06T15:50:17.428Z,10.53
2019-03-06T15:55:27.750Z,4.90
2019-03-06T16:00:34.476Z,4.27
2019-03-06T16:05:39.948Z,4.30
2019-03-06T16:10:46.827Z,3.10
2019-03-06T16:15:51.863Z,2.80
2019-03-06T16:20:57.145Z,2.50
2019-03-06T16:26:02.503Z,2.50
2019-03-06T16:31:07.666Z,3.03
2019-03-06T16:36:13.096Z,3.53
2019-03-06T16:41:18.097Z,3.20
2019-03-06T16:46:23.101Z,3.93
2019-03-06T16:51:28.868Z,3.27
2019-03-06T16:56:33.856Z,3.13
2019-03-06T17:01:40.823Z,3.27
2019-03-06T17:06:45.697Z,2.90
2019-03-06T17:11:51.058Z,2.50
2019-03-06T17:16:57.881Z,4.17
2019-03-06T17:22:03.181Z,3.33
2019-03-06T17:27:08.237Z,3.20
2019-03-06T17:32:13.650Z,2.30
2019-03-06T17:37:19.336Z,5.87
2019-03-06T17:42:24.728Z,2.80
2019-03-06T17:47:29.774Z,2.60
2019-03-06T17:52:36.441Z,3.07
2019-03-06T17:57:41.455Z,2.17
2019-03-06T18:02:46.449Z,2.20
2019-03-06T18:07:51.564Z,2.10
2019-03-06T18:12:59.326Z,2.60
2019-03-06T18:18:04.030Z,1.93
2019-03-06T18:23:09.147Z,2.13
2019-03-06T18:28:14.632Z,2.33
2019-03-06T18:33:19.902Z,1.80
2019-03-06T18:38:24.843Z,2.00
2019-03-06T18:43:29.922Z,2.63
2019-03-06T18:48:36.955Z,2.87
2019-03-06T18:53:42.164Z,2.53
2019-03-06T18:58:47.506Z,2.93
2019-03-06T19:03:55.910Z,3.13
2019-03-06T19:09:00.869Z,2.90
2019-03-06T19:14:06.987Z,2.87
2019-03-06T19:19:12.704Z,2.50
2019-03-06T19:24:17.885Z,2.77
2019-03-06T19:29:22.917Z,2.73
2019-03-06T19:34:27.944Z,3.17
2019-03-06T19:39:33.262Z,2.77
2019-03-06T19:44:38.332Z,3.10
2019-03-06T19:49:43.693Z,3.17
2019-03-06T19:54:49.748Z,2.73
2019-03-06T19:59:55.029Z,3.17
2019-03-06T20:05:00.149Z,3.43
2019-03-06T20:10:05.444Z,3.90
2019-03-06T20:15:11.081Z,4.43
2019-03-06T20:20:17.162Z,4.57
2019-03-06T20:25:22.804Z,5.13
2019-03-06T20:30:28.619Z,5.67
2019-03-06T20:35:33.605Z,6.43
2019-03-06T20:40:38.608Z,6.57
2019-03-06T20:45:43.891Z,6.73
2019-03-06T20:50:49.014Z,6.80
2019-03-06T20:55:54.303Z,8.20
2019-03-06T21:00:59.256Z,8.13
2019-03-06T21:06:04.721Z,10.90
2019-03-06T21:11:09.844Z,8.67
2019-03-06T21:16:14.848Z,9.30
2019-03-06T21:21:19.949Z,10.47
2019-03-06T21:26:24.968Z,10.63
2019-03-06T21:31:30.297Z,11.27
2019-03-06T21:36:35.260Z,11.10
2019-03-06T21:41:41.356Z,10.93
2019-03-06T21:46:46.449Z,10.27
2019-03-06T21:51:54.314Z,9.80
2019-03-06T21:57:00.195Z,9.30
2019-03-06T22:02:06.147Z,9.80
2019-03-06T22:07:11.707Z,9.77
2019-03-06T22:12:18.474Z,8.97
2019-03-06T22:17:23.521Z,9.00
2019-03-06T22:22:29.297Z,8.97
2019-03-06T22:27:34.349Z,9.00
2019-03-06T22:32:39.511Z,9.90
2019-03-06T22:37:44.755Z,8.57
2019-03-06T22:42:49.770Z,9.53
2019-03-06T22:47:54.907Z,9.60
2019-03-06T22:53:02.427Z,9.20
2019-03-06T22:58:07.478Z,11.77
2019-03-06T23:03:13.409Z,12.63
2019-03-06T23:08:18.453Z,11.90
2019-03-06T23:13:23.759Z,12.43
2019-03-06T23:18:28.800Z,12.30
2019-03-06T23:23:35.603Z,12.57
2019-03-06T23:28:42.509Z,12.33
2019-03-06T23:33:47.520Z,12.40
2019-03-06T23:38:53.042Z,12.43
2019-03-06T23:43:58.012Z,11.37
2019-03-06T23:49:03.111Z,12.27
2019-03-06T23:54:08.355Z,12.23
2019-03-06T23:59:13.366Z,11.50
